Adel, GA

12:50 PM EDT on July 29, 2014 (GMT -0400)
Adel, Georgia (KGAADEL2) Elev 253 ft | 31.14 °N, 83.40 °W | Change Station

Current weather conditions updated 1 second ago

Clear
Clear
90.0 °F
Feels Like 91 °F
N
1.6
Wind Variable Wind from WSW
Gusts 8.3 mph

Today is forecast to be Cooler than yesterday.

Today
High -- | Low -- °F
--% Chance of Precip.
Yesterday
High -- | Low -- °F
Precip. -- in
6:48 AM 8:31 PM
Waxing Crescent, 7% visible
Pressure 29.96 in
Visibility 10.0 miles
Clouds Clear
Heat Index 91 °F
Dew Point 64 °F
Humidity 42%
Rainfall 0.00 in
Snow Depth Not available.
UV 12 out of 12
Pollen 6.00 out of 12
Air Quality Not available.
Flu Activity Not available.
METAR KVAD 291558Z 24005KT 10SM CLR 30/16 A2996 RMK AO2A SLP145 T03000239 $

More Conditions Fewer Conditions

Pressure 29.96 in
Visibility 10.0 miles
Clouds Clear
Heat Index 91 °F
Dew Point 64 °F
Humidity 42%
Rainfall 0.00 in
Snow Depth Not available.
UV 12 out of 12
Pollen 6.00 out of 12
Air Quality Not available.
Flu Activity Not available.
METAR KVAD 291558Z 24005KT 10SM CLR 30/16 A2996 RMK AO2A SLP145 T03000239 $

More Conditions Fewer Conditions

10-Day Weather Forecast

Almanac

Astronomy

Jul. 29, 2014 Rise Set
Actual Time 6:48 AM EDT 8:31 PM EDT
Civil Twilight 6:22 AM EDT 8:57 PM EDT
Nautical Twilight 5:50 AM EDT 9:29 PM EDT
Astronomical Twilight 5:16 AM EDT 10:02 PM EDT
Moon 9:10 AM EDT 9:58 PM EDT
Length of Visible Light 14h 35m
Length of Day
13h 42m
Tomorrow will be 1m 21s shorter.
Waxing Crescent, 7% of the Moon is Illuminated
Today
Waxing Crescent
Aug 3
First Quarter
Aug 10
Full
Aug 17
Last Quarter
Aug 25
New

Today's Extremes

State Highs State Lows

Community

WunderPhotos

Upload Photos

1,738,783 photos uploaded!

Nearby

Snow Depth

Station Depth Elevation
No new snow has been reported.

Earthquake Activity

City Distance Mag. Time & Date
No recent earthquake activity has been reported nearby.
Minimum magnitude displayed is 2.5.

Coastal Water Temperatures

Place Temperature
No Stations Reporting

Nearby Weather Stations

Station Location Temp. Heat Index Dew Point Humidity Wind Precip. Elev Updated Type
Adel, Georgia, Adel, GA 90.0 °F 91 °F 64 °F 42% WSW  at  1.6 mph 0.00 in / hr 253 ft 12:50 PM EDT Rapid Fire
RAWS ADEL GA, Cecil, GA 86 °F 86 °F 62 °F 44% WNW  at  6 mph 0.00 in / hr 231 ft 12:04 PM EDT MADIS
Wood Triple Lake Road, Tifton, GA 86.9 °F 90 °F 67 °F 52% NW  at  3.0 mph 0.00 in / hr 322 ft 12:45 PM EDT Normal
City of Moultrie Service Center, Moultrie, GA 85.5 °F 88 °F 66 °F 52% WNW  at  3.0 mph 0.00 in / hr 299 ft 12:47 PM EDT Normal

Show More Stations Show Fewer Stations